Moselle, Mississippi
Current Conditions -  °F | °C
As of 9:35 PM on Saturday 22 Nov 2014 (Local Time) from KPIB Reporting Station
Overcast Overcast  
Wind Chill: 61°   Ceiling: 1600
Heat Index: 61°   Visibility: 10mi
Dew Point: 54°   Wind: 8mph
Humidity: 77%   Direction: 110°ESE
Pressure: 30.01"   Gusts: NA
Location:  31.5°N, 89.28°W
Report Text: KPIB 230335Z AUTO 11007KT 10SM OVC016 16/12 A3001 RMK AO1
Loading
Personal Weather Stations






























Interactive Weather Map New forecast layout! Learn more

10-Day Weather Forecast

Advertisements
Track Severe Weather on mobile